Time;durP1;ratioP1;P1;durP2;ratioP2;P2;SDS_P1;SDS_P2;PMS_P1;PMS_P2;Temp;Humidity;BMP_temperature;BMP_pressure;BME280_temperature;BME280_humidity;BME280_pressure;Samples;Min_cycle;Max_cycle;Signal;HPM_P1;HPM_P2
2023/01/14 00:01:31;;;;;;;20.65;15.07;;;;;;;1.17;100.00;96657.94;5088761;28;20477;-62
2023/01/14 00:03:57;;;;;;;23.92;20.13;;;;;;;1.17;100.00;96652.75;5088090;28;20024;-61
2023/01/14 00:06:27;;;;;;;26.35;19.50;;;;;;;1.14;100.00;96665.84;5084557;28;20022;-59
2023/01/14 00:08:58;;;;;;;24.17;19.73;;;;;;;1.08;100.00;96658.28;5087707;28;20060;-60
2023/01/14 00:11:45;;;;;;;17.25;13.55;;;;;;;0.99;100.00;96664.66;5086947;28;20035;-61
2023/01/14 00:14:10;;;;;;;22.05;13.27;;;;;;;0.93;100.00;96659.72;5085881;28;20395;-60
2023/01/14 00:16:36;;;;;;;18.35;10.70;;;;;;;0.89;100.00;96652.97;5088434;28;20457;-60
2023/01/14 00:19:02;;;;;;;15.45;11.35;;;;;;;0.85;100.00;96650.50;5084550;28;20051;-60
2023/01/14 00:21:28;;;;;;;10.93;8.25;;;;;;;0.80;100.00;96655.03;5088712;28;20397;-63
2023/01/14 00:23:53;;;;;;;15.75;9.15;;;;;;;0.79;100.00;96657.66;5088559;28;20031;-60
2023/01/14 00:26:20;;;;;;;14.30;7.90;;;;;;;0.79;100.00;96645.56;5088845;28;20039;-66
2023/01/14 00:28:46;;;;;;;15.00;8.63;;;;;;;0.79;100.00;96640.38;5085836;28;20023;-65
2023/01/14 00:31:14;;;;;;;19.85;11.48;;;;;;;0.83;100.00;96636.75;5087417;28;20044;-65
2023/01/14 00:33:41;;;;;;;13.65;9.75;;;;;;;0.84;100.00;96629.78;5087589;28;20052;-65
2023/01/14 00:36:08;;;;;;;13.93;10.05;;;;;;;0.74;100.00;96636.25;5088957;28;20047;-66
2023/01/14 00:38:34;;;;;;;15.60;10.32;;;;;;;0.73;100.00;96627.63;5088129;28;20039;-65
2023/01/14 00:41:09;;;;;;;13.68;9.65;;;;;;;0.73;100.00;96621.59;5081090;28;20471;-60
2023/01/14 00:43:36;;;;;;;17.23;11.07;;;;;;;0.76;100.00;96619.72;5082133;28;20036;-64
2023/01/14 00:46:03;;;;;;;17.42;14.13;;;;;;;0.76;100.00;96621.47;5074856;28;20036;-60
2023/01/14 00:48:28;;;;;;;16.80;13.60;;;;;;;0.76;100.00;96611.94;5083988;28;20024;-60
2023/01/14 00:50:53;;;;;;;17.77;11.20;;;;;;;0.73;100.00;96596.50;5082679;28;20497;-60
2023/01/14 00:53:19;;;;;;;12.15;9.15;;;;;;;0.66;100.00;96589.88;5081800;28;20416;-61
2023/01/14 00:55:45;;;;;;;12.23;7.43;;;;;;;0.65;100.00;96594.22;5083472;28;20111;-61
2023/01/14 00:58:10;;;;;;;11.00;7.93;;;;;;;0.64;100.00;96581.31;5086148;28;20059;-61
2023/01/14 01:00:35;;;;;;;13.18;10.20;;;;;;;0.64;100.00;96589.09;5088538;28;20016;-71
2023/01/14 01:03:01;;;;;;;10.82;8.82;;;;;;;0.59;100.00;96586.69;5083757;28;20031;-63
2023/01/14 01:05:26;;;;;;;13.18;9.85;;;;;;;0.57;100.00;96585.88;5082092;28;20020;-60
2023/01/14 01:07:51;;;;;;;16.95;9.13;;;;;;;0.66;100.00;96587.28;5089710;28;20549;-60
2023/01/14 01:10:17;;;;;;;9.65;6.85;;;;;;;0.67;100.00;96583.78;5083042;28;20139;-60
2023/01/14 01:12:42;;;;;;;10.00;6.00;;;;;;;0.68;100.00;96577.69;5076484;28;20107;-61
2023/01/14 01:15:08;;;;;;;8.75;6.22;;;;;;;0.74;100.00;96576.63;5070509;28;20052;-60
2023/01/14 01:17:33;;;;;;;11.70;6.28;;;;;;;0.72;100.00;96584.44;5087400;28;20094;-60
2023/01/14 01:19:59;;;;;;;6.15;5.00;;;;;;;0.74;100.00;96576.63;5085569;28;20040;-63
2023/01/14 01:22:24;;;;;;;12.57;5.85;;;;;;;0.73;100.00;96577.53;5086799;28;20486;-65
2023/01/14 01:24:50;;;;;;;26.85;17.58;;;;;;;0.71;100.00;96567.22;5081080;28;20038;-62
2023/01/14 01:27:16;;;;;;;23.27;16.13;;;;;;;0.69;100.00;96572.47;5077054;28;20028;-62
2023/01/14 01:29:42;;;;;;;15.73;11.07;;;;;;;0.64;100.00;96568.38;5086283;28;20157;-62
2023/01/14 01:32:07;;;;;;;9.23;6.85;;;;;;;0.57;100.00;96571.19;5081703;28;20394;-62
2023/01/14 01:34:32;;;;;;;9.20;6.65;;;;;;;0.52;100.00;96570.50;5088547;28;20032;-62
2023/01/14 01:36:58;;;;;;;7.90;5.82;;;;;;;0.49;100.00;96573.22;5077433;28;20028;-63
2023/01/14 01:39:23;;;;;;;21.80;14.00;;;;;;;0.50;100.00;96580.09;5077830;28;20102;-71
2023/01/14 01:41:48;;;;;;;13.98;10.98;;;;;;;0.47;100.00;96575.03;5084492;28;20074;-70
2023/01/14 01:44:14;;;;;;;15.02;9.77;;;;;;;0.45;100.00;96565.66;5079727;28;20589;-71
2023/01/14 01:46:40;;;;;;;12.20;8.93;;;;;;;0.40;100.00;96560.63;5080369;28;20507;-71
2023/01/14 01:49:13;;;;;;;14.63;8.45;;;;;;;0.40;100.00;96569.22;5081847;28;20040;-71
2023/01/14 01:51:54;;;;;;;12.23;8.35;;;;;;;0.39;100.00;96574.47;5075189;28;20024;-71
2023/01/14 01:54:24;;;;;;;20.63;14.68;;;;;;;0.34;100.00;96576.41;5084803;28;20162;-71
2023/01/14 01:56:50;;;;;;;26.02;17.73;;;;;;;0.32;100.00;96570.41;5084094;28;20027;-71
2023/01/14 01:59:25;;;;;;;18.42;16.58;;;;;;;0.28;100.00;96574.88;5085988;28;20049;-60
2023/01/14 02:01:53;;;;;;;16.92;13.98;;;;;;;0.27;100.00;96565.44;5087265;28;20363;-60
2023/01/14 02:04:19;;;;;;;14.30;11.18;;;;;;;0.19;100.00;96555.34;5080564;28;20348;-60
2023/01/14 02:06:44;;;;;;;14.73;10.45;;;;;;;0.14;100.00;96558.09;5085845;28;20089;-60
2023/01/14 02:09:10;;;;;;;12.18;10.35;;;;;;;0.12;100.00;96554.72;5076163;28;20410;-60
2023/01/14 02:11:56;;;;;;;10.30;9.05;;;;;;;0.17;100.00;96557.16;5081302;28;20516;-60
2023/01/14 02:14:30;;;;;;;14.40;11.50;;;;;;;0.20;100.00;96558.75;5077549;28;20035;-60
2023/01/14 02:17:07;;;;;;;11.73;10.52;;;;;;;0.21;100.00;96561.31;5084580;28;20030;-71
2023/01/14 02:19:57;;;;;;;13.23;10.75;;;;;;;0.14;100.00;96554.69;5086725;28;20032;-64
2023/01/14 02:22:42;;;;;;;13.98;11.07;;;;;;;0.04;100.00;96564.53;5087400;28;20374;-60
2023/01/14 02:25:45;;;;;;;11.77;9.35;;;;;;;0.05;100.00;96557.59;5086608;28;20020;-60
2023/01/14 02:28:38;;;;;;;8.30;6.63;;;;;;;0.25;100.00;96565.47;5082511;28;20051;-60
2023/01/14 02:31:21;;;;;;;8.15;6.38;;;;;;;0.12;100.00;96551.31;5087783;28;20043;-60
2023/01/14 02:34:09;;;;;;;11.63;7.95;;;;;;;0.05;100.00;96537.72;5093153;28;20182;-60
2023/01/14 02:36:53;;;;;;;11.02;6.85;;;;;;;-0.02;100.00;96536.25;5081542;28;20032;-60
2023/01/14 02:39:56;;;;;;;10.13;7.90;;;;;;;-0.03;100.00;96540.59;5077580;28;20591;-60
2023/01/14 02:45:27;;;;;;;13.73;8.20;;;;;;;0.02;100.00;96531.81;5090446;28;20042;-60
2023/01/14 02:47:53;;;;;;;10.32;7.40;;;;;;;-0.06;100.00;96530.34;5082949;28;20069;-60
2023/01/14 02:50:19;;;;;;;10.77;7.65;;;;;;;-0.13;100.00;96523.69;5086853;28;20609;-60
2023/01/14 02:52:45;;;;;;;8.88;7.95;;;;;;;-0.17;100.00;96533.34;5082110;28;20024;-60
2023/01/14 02:55:34;;;;;;;15.48;8.70;;;;;;;-0.18;100.00;96525.63;5081603;28;20490;-60
2023/01/14 02:58:42;;;;;;;12.27;7.05;;;;;;;-0.21;100.00;96523.13;5082106;28;20034;-65
2023/01/14 03:01:28;;;;;;;10.50;9.20;;;;;;;-0.28;100.00;96521.69;5089550;28;20116;-62
2023/01/14 03:04:21;;;;;;;10.43;8.77;;;;;;;-0.32;100.00;96524.38;5071739;28;20031;-62
2023/01/14 03:06:51;;;;;;;13.77;10.32;;;;;;;-0.12;100.00;96520.19;5078518;28;20029;-62
2023/01/14 03:09:44;;;;;;;13.52;8.75;;;;;;;-0.11;100.00;96511.56;5085251;28;20036;-62
2023/01/14 03:12:36;;;;;;;11.32;9.23;;;;;;;-0.18;100.00;96516.13;5090271;28;20379;-62
2023/01/14 03:15:29;;;;;;;11.30;8.23;;;;;;;-0.27;100.00;96515.59;5077521;28;20031;-61
2023/01/14 03:18:04;;;;;;;9.43;8.30;;;;;;;-0.35;100.00;96515.88;5088638;28;20088;-66
2023/01/14 03:20:33;;;;;;;13.13;9.55;;;;;;;-0.41;100.00;96506.56;5086661;28;20078;-65
2023/01/14 03:23:05;;;;;;;16.15;10.25;;;;;;;-0.47;100.00;96488.69;5082883;28;20024;-65
2023/01/14 03:25:35;;;;;;;17.27;10.23;;;;;;;-0.52;100.00;96504.38;5083575;28;20020;-65
2023/01/14 03:28:04;;;;;;;16.52;11.38;;;;;;;-0.54;100.00;96502.75;5086776;28;20089;-65
2023/01/14 03:30:35;;;;;;;12.65;10.00;;;;;;;-0.59;100.00;96506.31;5084370;28;20024;-65
2023/01/14 03:33:06;;;;;;;17.08;10.18;;;;;;;-0.59;100.00;96502.91;5083068;28;20507;-65
2023/01/14 03:35:34;;;;;;;12.30;10.02;;;;;;;-0.60;100.00;96494.28;5087301;28;20020;-62
2023/01/14 03:38:12;;;;;;;17.08;10.77;;;;;;;-0.63;100.00;96486.63;5080724;28;20063;-60
2023/01/14 03:40:39;;;;;;;15.27;11.25;;;;;;;-0.71;100.00;96488.66;5082499;28;20024;-60
2023/01/14 03:43:10;;;;;;;21.58;11.77;;;;;;;-0.77;100.00;96486.28;5086585;28;20394;-61
2023/01/14 03:45:39;;;;;;;16.00;10.95;;;;;;;-0.74;100.00;96484.41;5089482;28;20494;-61
2023/01/14 03:48:06;;;;;;;14.75;11.27;;;;;;;-0.69;100.00;96486.84;5080199;28;20031;-61
2023/01/14 03:50:41;;;;;;;9.57;7.00;;;;;;;-0.64;100.00;96474.59;5086376;28;20054;-61
2023/01/14 03:53:27;;;;;;;8.77;6.20;;;;;;;-0.58;100.00;96466.63;5083126;28;20497;-61
2023/01/14 03:56:01;;;;;;;12.02;9.38;;;;;;;-0.62;100.00;96465.03;5064618;28;20027;-60
2023/01/14 03:58:42;;;;;;;11.25;7.72;;;;;;;-0.64;100.00;96461.66;5090584;28;20094;-62
2023/01/14 04:01:19;;;;;;;10.68;7.15;;;;;;;-0.61;100.00;96463.31;5086131;28;20077;-63
2023/01/14 04:03:46;;;;;;;9.52;6.15;;;;;;;-0.59;100.00;96449.41;5080696;28;20118;-62
2023/01/14 04:06:13;;;;;;;8.93;5.63;;;;;;;-0.57;100.00;96451.97;5087489;28;20056;-62
2023/01/14 04:08:39;;;;;;;6.50;5.25;;;;;;;-0.61;100.00;96445.22;5087896;28;20035;-62
2023/01/14 04:11:05;;;;;;;5.00;4.47;;;;;;;-0.64;100.00;96438.38;5090466;28;20024;-62
2023/01/14 04:16:14;;;;;;;13.10;8.82;;;;;;;-0.76;100.00;96433.66;5087352;28;20051;-61
2023/01/14 04:18:40;;;;;;;9.90;6.05;;;;;;;-0.76;100.00;96431.91;5088854;28;20028;-66
2023/01/14 04:21:05;;;;;;;19.02;9.93;;;;;;;-0.82;100.00;96432.13;5086028;28;20397;-66
2023/01/14 04:23:30;;;;;;;16.38;9.35;;;;;;;-0.90;100.00;96434.13;5089554;28;20115;-65
2023/01/14 04:25:57;;;;;;;43.85;25.40;;;;;;;-0.88;100.00;96433.19;5087725;28;20425;-65
2023/01/14 04:28:23;;;;;;;35.38;22.92;;;;;;;-0.90;100.00;96435.00;5084722;28;20106;-65
2023/01/14 04:30:49;;;;;;;25.98;15.93;;;;;;;-0.90;100.00;96437.56;5077782;28;20451;-65
2023/01/14 04:33:14;;;;;;;28.30;18.45;;;;;;;-0.98;100.00;96439.59;5089141;28;20308;-61
2023/01/14 04:35:39;;;;;;;23.02;13.85;;;;;;;-1.04;100.00;96440.63;5084669;28;20536;-65
2023/01/14 04:38:05;;;;;;;19.48;11.73;;;;;;;-1.04;100.00;96443.22;5082478;28;20672;-65
2023/01/14 04:40:30;;;;;;;12.13;8.18;;;;;;;-1.08;100.00;96441.66;5087445;28;20043;-65
2023/01/14 04:42:56;;;;;;;16.58;9.40;;;;;;;-1.07;100.00;96440.75;5069020;28;20391;-65
2023/01/14 04:45:21;;;;;;;13.82;7.18;;;;;;;-1.06;100.00;96428.66;5088801;28;20020;-65
2023/01/14 04:47:49;;;;;;;10.50;6.00;;;;;;;-1.03;100.00;96436.28;5090011;28;20402;-64
2023/01/14 04:53:14;;;;;;;6.50;3.67;;;;;;;-1.07;100.00;96438.16;5087867;28;20523;-61
2023/01/14 04:55:40;;;;;;;6.82;5.22;;;;;;;-1.02;100.00;96430.22;5075936;28;20017;-60
2023/01/14 04:58:08;;;;;;;9.07;6.85;;;;;;;-1.00;100.00;96433.59;5077897;28;20027;-60
2023/01/14 05:00:35;;;;;;;11.98;7.28;;;;;;;-1.01;100.00;96437.09;5086811;28;20027;-60
2023/01/14 05:03:05;;;;;;;8.40;7.18;;;;;;;-1.05;100.00;96438.09;5082857;28;20075;-60
2023/01/14 05:05:31;;;;;;;11.85;8.18;;;;;;;-1.02;100.00;96443.16;5087208;28;20770;-61
2023/01/14 05:07:57;;;;;;;9.80;8.30;;;;;;;-1.05;100.00;96444.13;5081980;28;20073;-61
2023/01/14 05:10:23;;;;;;;10.10;7.43;;;;;;;-1.01;100.00;96434.50;5079860;28;20044;-60
2023/01/14 05:12:57;;;;;;;19.92;14.02;;;;;;;-0.92;100.00;96434.19;5087523;28;20066;-61
2023/01/14 05:15:38;;;;;;;22.35;15.32;;;;;;;-0.95;100.00;96426.56;5081070;28;20486;-65
2023/01/14 05:18:04;;;;;;;24.55;16.15;;;;;;;-0.98;100.00;96428.38;5085870;28;20106;-65
2023/01/14 05:20:30;;;;;;;20.63;14.15;;;;;;;-0.96;100.00;96417.13;5081645;28;20021;-65
2023/01/14 05:23:03;;;;;;;17.15;13.35;;;;;;;-0.95;100.00;96411.03;5083201;28;20447;-65
2023/01/14 05:25:31;;;;;;;25.45;15.88;;;;;;;-0.93;100.00;96408.38;5090097;28;20510;-65
2023/01/14 05:28:02;;;;;;;25.52;18.02;;;;;;;-0.87;100.00;96410.78;5090045;28;20421;-65
2023/01/14 05:30:28;;;;;;;28.40;19.70;;;;;;;-0.88;100.00;96398.75;5087374;28;20024;-61
2023/01/14 05:32:53;;;;;;;28.17;19.40;;;;;;;-0.91;100.00;96379.00;5089666;28;20035;-65
2023/01/14 05:35:19;;;;;;;19.58;13.95;;;;;;;-0.89;100.00;96372.03;5089706;28;20496;-70
2023/01/14 05:37:44;;;;;;;18.23;11.90;;;;;;;-0.79;100.00;96387.22;5089524;28;20077;-70
2023/01/14 05:40:10;;;;;;;13.32;9.27;;;;;;;-0.64;100.00;96388.41;5090504;28;20039;-70
2023/01/14 05:45:37;;;;;;;39.05;24.10;;;;;;;-0.58;100.00;96393.34;5099204;28;20095;-70
2023/01/14 05:48:03;;;;;;;23.55;16.50;;;;;;;-0.41;100.00;96387.56;5076829;28;20055;-70
2023/01/14 05:50:29;;;;;;;17.35;12.80;;;;;;;-0.36;100.00;96393.41;5089514;28;20520;-70
2023/01/14 05:52:54;;;;;;;18.25;11.90;;;;;;;-0.40;100.00;96391.81;5090138;28;20064;-62
2023/01/14 05:55:19;;;;;;;16.52;13.07;;;;;;;-0.37;100.00;96393.47;5087567;28;20052;-62
2023/01/14 05:57:45;;;;;;;29.80;17.02;;;;;;;-0.38;100.00;96395.19;5089896;28;20047;-61
2023/01/14 06:06:20;;;;;;;17.58;12.20;;;;;;;-0.33;100.00;96393.31;5089209;28;20027;-62
2023/01/14 06:08:24;;;;;;;26.15;18.92;;;;;;;-0.40;100.00;96411.69;5089343;28;20507;-61
2023/01/14 06:10:49;;;;;;;27.55;19.85;;;;;;;-0.45;100.00;96414.44;5071460;28;20027;-61
2023/01/14 06:13:14;;;;;;;26.02;21.02;;;;;;;-0.47;100.00;96405.91;5089605;28;20085;-61
2023/01/14 06:15:40;;;;;;;25.95;19.52;;;;;;;-0.47;100.00;96413.66;5089643;28;20028;-61
2023/01/14 06:18:09;;;;;;;27.10;19.50;;;;;;;-0.47;100.00;96431.78;5089145;28;20115;-61
2023/01/14 06:20:38;;;;;;;34.50;24.80;;;;;;;-0.46;100.00;96423.09;5088576;28;20098;-61
2023/01/14 06:23:05;;;;;;;31.00;24.52;;;;;;;-0.43;100.00;96410.06;5089339;28;20080;-61
2023/01/14 06:25:32;;;;;;;29.67;22.55;;;;;;;-0.42;100.00;96409.16;5089138;28;20024;-61
2023/01/14 06:27:59;;;;;;;28.95;23.45;;;;;;;-0.44;100.00;96396.28;5089202;28;20061;-69
2023/01/14 06:30:24;;;;;;;27.00;22.92;;;;;;;-0.45;100.00;96401.50;5088929;28;20556;-65
2023/01/14 06:32:50;;;;;;;31.23;24.67;;;;;;;-0.44;100.00;96379.91;5089376;28;20031;-60
2023/01/14 06:35:15;;;;;;;25.42;20.33;;;;;;;-0.41;100.00;96384.97;5089680;28;20517;-60
2023/01/14 06:37:44;;;;;;;33.75;22.02;;;;;;;-0.36;100.00;96383.03;5088930;28;20131;-61
2023/01/14 06:40:11;;;;;;;33.20;22.08;;;;;;;-0.35;100.00;96369.19;5089197;28;20577;-60
2023/01/14 06:42:36;;;;;;;30.63;21.67;;;;;;;-0.37;100.00;96375.34;5088715;28;20059;-61
2023/01/14 06:45:02;;;;;;;32.90;22.33;;;;;;;-0.42;100.00;96369.53;5089092;28;20051;-60
2023/01/14 06:47:27;;;;;;;29.92;20.00;;;;;;;-0.47;100.00;96372.28;5091125;28;20066;-66
2023/01/14 06:49:53;;;;;;;22.50;17.15;;;;;;;-0.49;100.00;96381.84;5089351;28;20536;-70
2023/01/14 06:52:18;;;;;;;21.35;16.27;;;;;;;-0.51;100.00;96379.28;5089307;28;20127;-66
2023/01/14 06:54:44;;;;;;;25.77;21.98;;;;;;;-0.48;100.00;96383.53;5088754;28;20614;-67
2023/01/14 06:57:09;;;;;;;27.75;24.08;;;;;;;-0.47;100.00;96391.22;5088804;28;20059;-65
2023/01/14 06:59:34;;;;;;;26.58;19.88;;;;;;;-0.41;100.00;96382.38;5089062;28;20034;-66
2023/01/14 07:02:00;;;;;;;24.48;19.45;;;;;;;-0.45;100.00;96386.81;5087973;28;20394;-66
2023/01/14 07:04:25;;;;;;;24.80;18.25;;;;;;;-0.46;100.00;96389.47;5089148;28;20036;-66
2023/01/14 07:06:53;;;;;;;19.58;16.10;;;;;;;-0.46;100.00;96398.06;5091085;28;20027;-65
2023/01/14 07:09:18;;;;;;;16.58;13.40;;;;;;;-0.44;100.00;96388.53;5092979;28;20084;-69
2023/01/14 07:11:43;;;;;;;17.88;13.52;;;;;;;-0.42;100.00;96385.03;5092524;28;20125;-61
2023/01/14 07:14:09;;;;;;;18.50;15.38;;;;;;;-0.38;100.00;96390.03;5092735;28;20685;-61
2023/01/14 07:16:34;;;;;;;22.67;15.52;;;;;;;-0.35;100.00;96396.84;5091947;28;20502;-61
2023/01/14 07:18:59;;;;;;;24.08;14.63;;;;;;;-0.36;100.00;96405.50;5092837;28;20512;-61
2023/01/14 07:21:25;;;;;;;21.73;14.10;;;;;;;-0.34;100.00;96407.13;5091833;28;20505;-61
2023/01/14 07:23:50;;;;;;;20.60;15.13;;;;;;;-0.34;100.00;96401.94;5092466;28;20485;-61
2023/01/14 07:26:17;;;;;;;101.95;91.93;;;;;;;-0.31;100.00;96394.09;5092321;28;20490;-62
2023/01/14 07:28:42;;;;;;;46.05;41.15;;;;;;;-0.31;100.00;96401.00;5092230;28;20107;-61
2023/01/14 07:31:08;;;;;;;33.15;27.00;;;;;;;-0.35;100.00;96392.50;5092254;28;20584;-64
2023/01/14 07:33:34;;;;;;;28.20;19.33;;;;;;;-0.35;100.00;96383.91;5092123;28;20449;-62
2023/01/14 07:35:59;;;;;;;39.00;26.38;;;;;;;-0.34;100.00;96386.41;5091865;28;20057;-64
2023/01/14 07:38:24;;;;;;;28.52;20.70;;;;;;;-0.34;100.00;96380.41;5091881;28;20040;-64
2023/01/14 07:40:50;;;;;;;27.08;20.48;;;;;;;-0.28;100.00;96376.75;5092255;28;20129;-63
2023/01/14 07:43:15;;;;;;;33.45;24.30;;;;;;;-0.28;100.00;96376.75;5074065;28;20031;-63
2023/01/14 07:45:41;;;;;;;29.08;22.88;;;;;;;-0.31;100.00;96380.28;5092946;28;20035;-69
2023/01/14 07:48:07;;;;;;;27.20;19.33;;;;;;;-0.28;100.00;96369.00;5092301;28;20028;-64
2023/01/14 07:50:32;;;;;;;27.23;20.90;;;;;;;-0.21;100.00;96360.94;5091586;28;20563;-62
2023/01/14 07:52:59;;;;;;;23.90;20.85;;;;;;;-0.12;100.00;96354.53;5092003;28;20024;-62
2023/01/14 07:55:26;;;;;;;28.65;19.55;;;;;;;-0.07;100.00;96346.59;5091993;28;20024;-62
2023/01/14 07:57:51;;;;;;;25.05;19.27;;;;;;;-0.05;100.00;96335.28;5091503;28;20435;-62
2023/01/14 08:00:18;;;;;;;26.38;19.30;;;;;;;0.02;100.00;96329.84;5090621;28;20065;-63
2023/01/14 08:02:44;;;;;;;22.02;18.50;;;;;;;0.06;100.00;96336.59;5091862;28;20493;-62
2023/01/14 08:05:09;;;;;;;21.70;17.98;;;;;;;0.05;100.00;96328.00;5091064;28;20031;-63
2023/01/14 08:07:35;;;;;;;22.05;17.67;;;;;;;0.09;100.00;96323.50;5090513;28;20086;-68
2023/01/14 08:10:00;;;;;;;23.50;18.30;;;;;;;0.16;100.00;96309.44;5090811;28;20020;-61
2023/01/14 08:12:28;;;;;;;29.17;21.17;;;;;;;0.20;100.00;96308.41;5090939;28;20533;-61
2023/01/14 08:14:53;;;;;;;29.73;25.80;;;;;;;0.25;100.00;96316.00;5086695;28;20055;-60
2023/01/14 08:17:19;;;;;;;32.33;24.77;;;;;;;0.31;100.00;96309.69;5085329;28;20059;-60
2023/01/14 08:19:44;;;;;;;30.42;25.30;;;;;;;0.45;100.00;96322.09;5090620;28;20602;-61
2023/01/14 08:22:12;;;;;;;26.77;21.38;;;;;;;0.47;100.00;96330.66;5091510;28;20647;-58
2023/01/14 08:24:37;;;;;;;22.13;19.05;;;;;;;0.53;100.00;96315.66;5091412;28;20023;-60
2023/01/14 08:27:03;;;;;;;24.23;20.15;;;;;;;0.59;100.00;96326.69;5088749;28;20023;-68
2023/01/14 08:29:28;;;;;;;25.33;22.55;;;;;;;0.62;100.00;96324.78;5090218;28;20087;-65
2023/01/14 08:31:56;;;;;;;37.25;33.20;;;;;;;0.68;100.00;96327.16;5095564;28;20109;-67
2023/01/14 08:34:22;;;;;;;40.22;35.03;;;;;;;0.76;100.00;96342.34;5089854;28;20028;-64
2023/01/14 08:36:48;;;;;;;27.95;22.98;;;;;;;0.88;100.00;96340.97;5090564;28;20059;-62
2023/01/14 08:39:14;;;;;;;25.23;21.55;;;;;;;0.91;100.00;96340.00;5090763;28;20116;-65
2023/01/14 08:41:39;;;;;;;23.90;21.17;;;;;;;1.02;100.00;96336.94;5090621;28;20039;-64
2023/01/14 08:44:05;;;;;;;27.88;20.98;;;;;;;1.05;100.00;96340.25;5090132;28;20027;-61
2023/01/14 08:46:30;;;;;;;27.23;22.25;;;;;;;1.08;100.00;96332.34;5086397;28;20024;-60
2023/01/14 08:48:56;;;;;;;26.17;22.08;;;;;;;1.20;100.00;96336.13;5087967;28;20039;-61
2023/01/14 08:51:26;;;;;;;22.65;20.23;;;;;;;1.25;100.00;96334.19;5087704;28;20046;-60
2023/01/14 08:53:53;;;;;;;20.73;18.58;;;;;;;1.37;100.00;96332.78;5068088;28;20401;-58
2023/01/14 08:56:19;;;;;;;21.85;19.15;;;;;;;1.49;100.00;96320.16;5089700;28;20070;-59
2023/01/14 08:58:44;;;;;;;27.40;19.33;;;;;;;1.58;100.00;96324.91;5088745;28;20105;-59
2023/01/14 09:01:10;;;;;;;27.25;21.05;;;;;;;1.57;100.00;96337.06;5090871;28;20023;-59
2023/01/14 09:03:36;;;;;;;24.92;19.67;;;;;;;1.64;100.00;96336.78;5090597;28;20027;-64
2023/01/14 09:06:10;;;;;;;23.75;17.35;;;;;;;1.69;100.00;96359.03;5085077;28;20027;-65
2023/01/14 09:17:07;;;;;;;21.17;18.85;;;;;;;1.88;100.00;96342.59;5082110;28;20043;-65
2023/01/14 09:19:56;;;;;;;24.65;20.20;;;;;;;1.84;100.00;96339.28;5089368;28;20032;-65
2023/01/14 09:22:25;;;;;;;20.55;16.90;;;;;;;1.86;100.00;96353.03;5082135;28;20178;-67
2023/01/14 09:24:50;;;;;;;16.42;14.43;;;;;;;1.88;100.00;96354.72;5089629;28;20044;-65
2023/01/14 09:27:16;;;;;;;14.63;13.23;;;;;;;1.93;100.00;96361.41;5077292;28;20028;-65
2023/01/14 09:29:42;;;;;;;15.95;14.18;;;;;;;2.05;100.00;96353.91;5087794;28;20024;-65
2023/01/14 09:32:12;;;;;;;22.00;19.02;;;;;;;2.18;100.00;96359.38;5088836;28;20012;-65
2023/01/14 09:34:42;;;;;;;20.13;18.02;;;;;;;2.27;100.00;96351.97;5089915;28;20024;-64
2023/01/14 09:37:10;;;;;;;19.05;14.95;;;;;;;2.32;100.00;96341.34;5080095;28;20043;-66
2023/01/14 09:39:35;;;;;;;18.10;16.17;;;;;;;2.42;100.00;96341.75;5089353;28;20022;-66
2023/01/14 09:42:07;;;;;;;23.90;19.10;;;;;;;2.59;100.00;96343.50;5090390;28;20024;-65
2023/01/14 09:44:33;;;;;;;14.40;11.13;;;;;;;2.64;100.00;96332.88;5087685;28;20050;-65
2023/01/14 09:46:59;;;;;;;13.48;10.98;;;;;;;2.72;100.00;96326.38;5087905;28;20486;-65
2023/01/14 09:49:27;;;;;;;16.17;14.48;;;;;;;2.92;100.00;96321.91;5087514;28;20028;-65
2023/01/14 09:52:17;;;;;;;16.35;14.05;;;;;;;3.12;100.00;96310.47;5083830;28;20124;-65
2023/01/14 09:55:05;;;;;;;17.60;15.85;;;;;;;3.31;100.00;96304.28;5083065;28;20412;-65
2023/01/14 09:57:43;;;;;;;13.82;12.18;;;;;;;3.44;100.00;96305.31;5088179;28;20073;-65
2023/01/14 10:00:25;;;;;;;11.82;10.60;;;;;;;3.61;100.00;96284.50;5083685;28;20031;-65
2023/01/14 10:02:56;;;;;;;18.65;16.63;;;;;;;3.78;100.00;96270.53;5082139;28;20063;-65
2023/01/14 10:05:29;;;;;;;20.98;15.73;;;;;;;3.92;100.00;96282.78;5086698;28;20059;-60
2023/01/14 10:08:01;;;;;;;12.95;11.02;;;;;;;3.99;100.00;96266.72;5088065;28;20409;-60
2023/01/14 10:10:31;;;;;;;21.33;17.23;;;;;;;4.05;100.00;96268.13;5084492;28;20024;-60
2023/01/14 10:13:02;;;;;;;19.70;14.98;;;;;;;4.17;100.00;96261.38;5089317;28;20539;-60
2023/01/14 10:15:39;;;;;;;15.77;11.85;;;;;;;4.35;100.00;96259.47;5089201;28;20350;-60
2023/01/14 10:18:39;;;;;;;12.98;10.57;;;;;;;4.48;100.00;96256.16;5082196;28;20032;-60
2023/01/14 10:21:17;;;;;;;16.50;10.77;;;;;;;4.77;100.00;96257.03;5089024;28;20035;-65
2023/01/14 10:23:42;;;;;;;10.73;8.68;;;;;;;4.88;100.00;96244.16;5087412;28;20070;-66
2023/01/14 10:26:16;;;;;;;8.32;7.47;;;;;;;5.00;100.00;96239.97;5089944;28;20024;-66
2023/01/14 10:28:48;;;;;;;10.30;7.43;;;;;;;5.13;100.00;96239.22;5088448;28;20073;-66
2023/01/14 10:31:19;;;;;;;8.35;6.68;;;;;;;5.24;100.00;96238.56;5089335;28;20429;-66
2023/01/14 10:33:45;;;;;;;7.35;6.65;;;;;;;5.31;99.32;96232.00;5088977;28;20024;-65
2023/01/14 10:36:17;;;;;;;6.95;6.28;;;;;;;5.37;100.00;96236.00;5086656;28;20032;-65
2023/01/14 10:38:42;;;;;;;7.95;7.25;;;;;;;5.50;100.00;96238.69;5086789;28;20421;-64
2023/01/14 10:41:09;;;;;;;14.32;10.80;;;;;;;5.55;100.00;96226.16;5087857;28;20024;-71
2023/01/14 10:43:42;;;;;;;17.38;13.50;;;;;;;5.64;100.00;96232.59;5087530;28;20563;-63
2023/01/14 10:46:15;;;;;;;11.35;7.47;;;;;;;5.65;100.00;96235.13;5106254;28;20497;-63
2023/01/14 10:49:00;;;;;;;10.35;9.10;;;;;;;5.68;100.00;96231.44;5092976;28;20032;-64
2023/01/14 10:51:36;;;;;;;11.80;10.60;;;;;;;5.58;100.00;96236.41;5092320;28;20070;-64
2023/01/14 10:54:22;;;;;;;10.15;8.52;;;;;;;5.52;100.00;96236.81;5092332;28;20054;-63
2023/01/14 10:56:57;;;;;;;10.23;9.15;;;;;;;5.49;99.22;96224.78;5081488;28;20023;-64
2023/01/14 10:59:29;;;;;;;14.38;12.95;;;;;;;5.30;99.43;96230.34;5092250;28;20390;-73
2023/01/14 11:01:55;;;;;;;7.43;6.72;;;;;;;5.18;98.98;96233.69;5092909;28;20450;-60
2023/01/14 11:04:26;;;;;;;7.50;6.80;;;;;;;5.08;96.25;96223.84;5092743;28;20525;-60
2023/01/14 11:06:51;;;;;;;10.00;9.10;;;;;;;5.00;95.46;96216.47;5108422;28;20076;-59
2023/01/14 11:09:29;;;;;;;7.13;6.13;;;;;;;5.13;97.61;96223.56;5092569;28;20024;-60
2023/01/14 11:11:56;;;;;;;10.93;8.52;;;;;;;5.24;95.47;96217.66;5092769;28;20048;-60
2023/01/14 11:14:24;;;;;;;7.97;7.22;;;;;;;5.29;94.11;96207.78;5091821;28;20107;-60
2023/01/14 11:16:49;;;;;;;6.50;5.72;;;;;;;5.26;92.39;96214.00;5092619;28;20024;-60
2023/01/14 11:19:15;;;;;;;4.75;4.28;;;;;;;5.24;91.47;96210.66;5092432;28;20031;-64
2023/01/14 11:21:46;;;;;;;5.38;4.60;;;;;;;5.30;89.26;96199.00;5092686;28;20547;-59
2023/01/14 11:24:39;;;;;;;13.73;8.50;;;;;;;5.41;92.66;96196.53;5081024;28;20081;-59
2023/01/14 11:27:14;;;;;;;4.68;4.22;;;;;;;5.50;91.60;96189.06;5092456;28;20035;-60
2023/01/14 11:29:46;;;;;;;4.28;3.88;;;;;;;5.59;90.22;96178.00;5091342;28;20028;-60
2023/01/14 11:32:14;;;;;;;5.60;4.60;;;;;;;5.67;90.60;96170.53;5092050;28;20111;-60
2023/01/14 11:34:39;;;;;;;5.50;4.95;;;;;;;5.77;91.12;96168.16;5092263;28;20028;-60
2023/01/14 11:37:10;;;;;;;7.90;6.03;;;;;;;6.00;92.56;96176.25;5091731;28;20097;-64
2023/01/14 11:39:38;;;;;;;8.85;5.90;;;;;;;6.06;88.19;96167.19;5092063;28;20024;-59
2023/01/14 11:42:35;;;;;;;8.15;5.00;;;;;;;6.27;86.57;96167.53;5092238;28;20020;-65
2023/01/14 11:45:15;;;;;;;4.82;4.28;;;;;;;6.39;85.21;96165.88;5065732;28;20053;-65
2023/01/14 11:47:52;;;;;;;16.33;11.32;;;;;;;6.44;83.24;96161.16;5092256;28;20100;-65
2023/01/14 11:50:39;;;;;;;9.15;7.07;;;;;;;6.49;85.53;96160.84;5091836;28;20427;-66
2023/01/14 11:53:14;;;;;;;5.05;3.67;;;;;;;6.56;83.85;96164.72;5090450;28;20063;-65
2023/01/14 11:55:40;;;;;;;9.68;7.18;;;;;;;6.55;83.41;96156.03;5091425;28;20058;-60
2023/01/14 11:58:17;;;;;;;5.03;4.43;;;;;;;6.56;82.71;96157.72;5091690;28;20035;-63